sensor_id;sensor_type;location;lat;lon;timestamp;pressure;altitude;pressure_sealevel;temperature;humidity
78841;BME280;68379;47.190;27.558;2023-05-20T00:00:10;100340.77;;;14.30;76.21
78841;BME280;68379;47.190;27.558;2023-05-20T00:02:59;100345.32;;;14.28;76.16
78841;BME280;68379;47.190;27.558;2023-05-20T00:05:28;100347.50;;;14.26;76.54
78841;BME280;68379;47.190;27.558;2023-05-20T00:07:57;100346.82;;;14.26;76.20
78841;BME280;68379;47.190;27.558;2023-05-20T00:10:27;100346.05;;;14.23;76.17
78841;BME280;68379;47.190;27.558;2023-05-20T00:12:56;100350.04;;;14.22;76.20
78841;BME280;68379;47.190;27.558;2023-05-20T00:15:24;100349.30;;;14.19;76.14
78841;BME280;68379;47.190;27.558;2023-05-20T00:17:54;100353.55;;;14.15;76.56
78841;BME280;68379;47.190;27.558;2023-05-20T00:20:23;100351.41;;;14.11;76.66
78841;BME280;68379;47.190;27.558;2023-05-20T00:22:52;100348.36;;;14.08;76.60
78841;BME280;68379;47.190;27.558;2023-05-20T00:25:22;100346.39;;;14.04;76.43
78841;BME280;68379;47.190;27.558;2023-05-20T00:27:51;100344.58;;;14.01;76.40
78841;BME280;68379;47.190;27.558;2023-05-20T00:30:20;100347.52;;;13.99;76.78
78841;BME280;68379;47.190;27.558;2023-05-20T00:32:49;100342.99;;;13.97;76.60
78841;BME280;68379;47.190;27.558;2023-05-20T00:35:18;100343.79;;;13.95;76.72
78841;BME280;68379;47.190;27.558;2023-05-20T00:37:47;100340.24;;;13.95;77.08
78841;BME280;68379;47.190;27.558;2023-05-20T00:40:16;100341.02;;;13.93;77.02
78841;BME280;68379;47.190;27.558;2023-05-20T00:42:45;100339.50;;;13.92;76.90
78841;BME280;68379;47.190;27.558;2023-05-20T00:45:14;100339.44;;;13.89;76.89
78841;BME280;68379;47.190;27.558;2023-05-20T00:47:43;100340.64;;;13.86;76.79
78841;BME280;68379;47.190;27.558;2023-05-20T00:50:12;100340.77;;;13.83;77.01
78841;BME280;68379;47.190;27.558;2023-05-20T00:52:41;100338.09;;;13.80;77.16
78841;BME280;68379;47.190;27.558;2023-05-20T00:55:15;100336.97;;;13.77;77.21
78841;BME280;68379;47.190;27.558;2023-05-20T00:57:44;100340.80;;;13.75;77.26
78841;BME280;68379;47.190;27.558;2023-05-20T01:00:14;100337.74;;;13.72;77.50
78841;BME280;68379;47.190;27.558;2023-05-20T01:02:43;100338.07;;;13.68;77.38
78841;BME280;68379;47.190;27.558;2023-05-20T01:05:12;100336.81;;;13.64;77.94
78841;BME280;68379;47.190;27.558;2023-05-20T01:07:42;100332.90;;;13.61;77.86
78841;BME280;68379;47.190;27.558;2023-05-20T01:10:11;100328.22;;;13.58;78.28
78841;BME280;68379;47.190;27.558;2023-05-20T01:12:44;100328.51;;;13.56;78.23
78841;BME280;68379;47.190;27.558;2023-05-20T01:15:15;100328.02;;;13.54;78.32
78841;BME280;68379;47.190;27.558;2023-05-20T01:17:46;100333.68;;;13.55;78.06
78841;BME280;68379;47.190;27.558;2023-05-20T01:20:17;100332.80;;;13.55;77.80
78841;BME280;68379;47.190;27.558;2023-05-20T01:22:53;100334.34;;;13.56;78.19
78841;BME280;68379;47.190;27.558;2023-05-20T01:25:22;100341.39;;;13.57;78.23
78841;BME280;68379;47.190;27.558;2023-05-20T01:27:54;100338.89;;;13.58;78.14
78841;BME280;68379;47.190;27.558;2023-05-20T01:30:25;100339.80;;;13.57;78.21
78841;BME280;68379;47.190;27.558;2023-05-20T01:33:01;100332.86;;;13.57;78.08
78841;BME280;68379;47.190;27.558;2023-05-20T01:35:32;100337.63;;;13.58;78.42
78841;BME280;68379;47.190;27.558;2023-05-20T01:38:02;100339.20;;;13.59;78.34
78841;BME280;68379;47.190;27.558;2023-05-20T01:40:32;100336.70;;;13.59;78.46
78841;BME280;68379;47.190;27.558;2023-05-20T01:43:02;100337.02;;;13.59;78.59
78841;BME280;68379;47.190;27.558;2023-05-20T01:45:32;100340.54;;;13.61;78.40
78841;BME280;68379;47.190;27.558;2023-05-20T01:48:00;100336.17;;;13.63;78.27
78841;BME280;68379;47.190;27.558;2023-05-20T01:50:29;100340.14;;;13.65;78.49
78841;BME280;68379;47.190;27.558;2023-05-20T01:52:58;100339.17;;;13.67;78.75
78841;BME280;68379;47.190;27.558;2023-05-20T01:55:27;100336.54;;;13.71;78.98
78841;BME280;68379;47.190;27.558;2023-05-20T01:57:56;100337.82;;;13.74;78.75
78841;BME280;68379;47.190;27.558;2023-05-20T02:00:25;100340.60;;;13.75;78.59
78841;BME280;68379;47.190;27.558;2023-05-20T02:02:55;100341.02;;;13.78;78.61
78841;BME280;68379;47.190;27.558;2023-05-20T02:05:23;100342.65;;;13.81;78.66
78841;BME280;68379;47.190;27.558;2023-05-20T02:07:52;100344.47;;;13.84;78.75
78841;BME280;68379;47.190;27.558;2023-05-20T02:10:21;100347.58;;;13.86;78.79
78841;BME280;68379;47.190;27.558;2023-05-20T02:12:50;100346.56;;;13.89;78.80
78841;BME280;68379;47.190;27.558;2023-05-20T02:15:19;100348.17;;;13.89;79.00
78841;BME280;68379;47.190;27.558;2023-05-20T02:17:48;100342.36;;;13.87;78.93
78841;BME280;68379;47.190;27.558;2023-05-20T02:20:17;100345.60;;;13.86;78.71
78841;BME280;68379;47.190;27.558;2023-05-20T02:22:46;100343.39;;;13.84;79.38
78841;BME280;68379;47.190;27.558;2023-05-20T02:25:15;100345.23;;;13.83;79.62
78841;BME280;68379;47.190;27.558;2023-05-20T02:27:44;100347.41;;;13.82;79.47
78841;BME280;68379;47.190;27.558;2023-05-20T02:30:13;100350.98;;;13.81;79.69
78841;BME280;68379;47.190;27.558;2023-05-20T02:32:42;100350.33;;;13.80;80.15
78841;BME280;68379;47.190;27.558;2023-05-20T02:35:11;100349.75;;;13.81;80.18
78841;BME280;68379;47.190;27.558;2023-05-20T02:37:40;100350.41;;;13.82;80.12
78841;BME280;68379;47.190;27.558;2023-05-20T02:40:10;100356.89;;;13.84;80.78
78841;BME280;68379;47.190;27.558;2023-05-20T02:42:39;100353.29;;;13.85;80.56
78841;BME280;68379;47.190;27.558;2023-05-20T02:45:09;100357.89;;;13.85;80.77
78841;BME280;68379;47.190;27.558;2023-05-20T02:47:38;100357.55;;;13.85;80.65
78841;BME280;68379;47.190;27.558;2023-05-20T02:50:08;100352.68;;;13.87;80.89
78841;BME280;68379;47.190;27.558;2023-05-20T02:52:37;100355.65;;;13.88;80.68
78841;BME280;68379;47.190;27.558;2023-05-20T02:55:08;100357.72;;;13.90;80.64
78841;BME280;68379;47.190;27.558;2023-05-20T02:57:37;100363.98;;;13.92;80.65
78841;BME280;68379;47.190;27.558;2023-05-20T03:00:08;100365.66;;;13.95;80.92
78841;BME280;68379;47.190;27.558;2023-05-20T03:02:38;100371.20;;;13.98;80.63
78841;BME280;68379;47.190;27.558;2023-05-20T03:05:08;100371.08;;;14.00;80.52
78841;BME280;68379;47.190;27.558;2023-05-20T03:07:38;100372.70;;;14.04;80.59
78841;BME280;68379;47.190;27.558;2023-05-20T03:10:09;100370.79;;;14.07;80.60
78841;BME280;68379;47.190;27.558;2023-05-20T03:12:38;100371.16;;;14.11;80.37
78841;BME280;68379;47.190;27.558;2023-05-20T03:15:08;100368.12;;;14.15;80.26
78841;BME280;68379;47.190;27.558;2023-05-20T03:17:38;100368.83;;;14.19;80.07
78841;BME280;68379;47.190;27.558;2023-05-20T03:20:08;100372.39;;;14.23;80.15
78841;BME280;68379;47.190;27.558;2023-05-20T03:22:39;100376.02;;;14.25;80.15
78841;BME280;68379;47.190;27.558;2023-05-20T03:25:09;100373.42;;;14.27;80.15
78841;BME280;68379;47.190;27.558;2023-05-20T03:27:38;100374.04;;;14.29;79.66
78841;BME280;68379;47.190;27.558;2023-05-20T03:30:09;100375.86;;;14.32;79.81
78841;BME280;68379;47.190;27.558;2023-05-20T03:32:38;100378.61;;;14.34;80.04
78841;BME280;68379;47.190;27.558;2023-05-20T03:35:08;100378.52;;;14.36;79.92
78841;BME280;68379;47.190;27.558;2023-05-20T03:37:38;100380.01;;;14.39;80.27
78841;BME280;68379;47.190;27.558;2023-05-20T03:40:09;100382.90;;;14.41;80.16
78841;BME280;68379;47.190;27.558;2023-05-20T03:42:39;100380.44;;;14.44;79.67
78841;BME280;68379;47.190;27.558;2023-05-20T03:45:10;100379.69;;;14.49;79.70
78841;BME280;68379;47.190;27.558;2023-05-20T03:47:39;100378.70;;;14.51;79.84
78841;BME280;68379;47.190;27.558;2023-05-20T03:50:09;100377.52;;;14.55;79.75
78841;BME280;68379;47.190;27.558;2023-05-20T03:52:38;100383.23;;;14.58;79.50
78841;BME280;68379;47.190;27.558;2023-05-20T03:55:09;100387.89;;;14.61;79.74
78841;BME280;68379;47.190;27.558;2023-05-20T03:57:38;100387.64;;;14.62;79.79
78841;BME280;68379;47.190;27.558;2023-05-20T04:00:09;100385.88;;;14.69;79.57
78841;BME280;68379;47.190;27.558;2023-05-20T04:02:38;100387.02;;;14.79;79.47
78841;BME280;68379;47.190;27.558;2023-05-20T04:05:09;100386.27;;;14.87;79.24
78841;BME280;68379;47.190;27.558;2023-05-20T04:07:38;100388.52;;;14.96;79.06
78841;BME280;68379;47.190;27.558;2023-05-20T04:10:10;100394.09;;;15.02;79.03
78841;BME280;68379;47.190;27.558;2023-05-20T04:12:39;100396.58;;;15.06;78.95
78841;BME280;68379;47.190;27.558;2023-05-20T04:15:10;100397.34;;;15.08;78.88
78841;BME280;68379;47.190;27.558;2023-05-20T04:17:40;100398.20;;;15.20;78.83
78841;BME280;68379;47.190;27.558;2023-05-20T04:20:12;100398.38;;;15.30;78.62
78841;BME280;68379;47.190;27.558;2023-05-20T04:22:41;100401.02;;;15.45;78.13
78841;BME280;68379;47.190;27.558;2023-05-20T04:25:11;100407.41;;;15.60;77.86
78841;BME280;68379;47.190;27.558;2023-05-20T04:27:41;100404.39;;;15.70;77.44
78841;BME280;68379;47.190;27.558;2023-05-20T04:30:12;100407.70;;;15.79;77.34
78841;BME280;68379;47.190;27.558;2023-05-20T04:32:41;100412.65;;;15.90;77.04
78841;BME280;68379;47.190;27.558;2023-05-20T04:35:10;100407.02;;;15.98;76.77
78841;BME280;68379;47.190;27.558;2023-05-20T04:37:40;100406.83;;;16.09;76.66
78841;BME280;68379;47.190;27.558;2023-05-20T04:40:13;100412.90;;;16.15;76.25
78841;BME280;68379;47.190;27.558;2023-05-20T04:42:42;100411.20;;;16.21;76.15
78841;BME280;68379;47.190;27.558;2023-05-20T04:45:12;100412.38;;;16.26;76.18
78841;BME280;68379;47.190;27.558;2023-05-20T04:47:41;100417.11;;;16.37;76.11
78841;BME280;68379;47.190;27.558;2023-05-20T04:50:11;100420.55;;;16.49;75.84
78841;BME280;68379;47.190;27.558;2023-05-20T04:52:40;100421.11;;;16.61;75.70
78841;BME280;68379;47.190;27.558;2023-05-20T04:55:11;100424.30;;;16.72;75.37
78841;BME280;68379;47.190;27.558;2023-05-20T04:57:40;100418.16;;;16.80;75.39
78841;BME280;68379;47.190;27.558;2023-05-20T05:00:11;100419.21;;;16.96;75.35
78841;BME280;68379;47.190;27.558;2023-05-20T05:02:40;100418.14;;;17.09;74.75
78841;BME280;68379;47.190;27.558;2023-05-20T05:05:09;100421.48;;;17.13;74.29
78841;BME280;68379;47.190;27.558;2023-05-20T05:07:38;100418.60;;;17.19;74.13
78841;BME280;68379;47.190;27.558;2023-05-20T05:10:09;100420.59;;;17.25;74.18
78841;BME280;68379;47.190;27.558;2023-05-20T05:12:38;100420.80;;;17.33;73.77
78841;BME280;68379;47.190;27.558;2023-05-20T05:15:09;100424.84;;;17.38;73.75
78841;BME280;68379;47.190;27.558;2023-05-20T05:17:38;100423.25;;;17.44;73.12
78841;BME280;68379;47.190;27.558;2023-05-20T05:20:09;100427.95;;;17.42;73.06
78841;BME280;68379;47.190;27.558;2023-05-20T05:22:38;100426.90;;;17.49;73.34
78841;BME280;68379;47.190;27.558;2023-05-20T05:25:10;100429.40;;;17.58;73.19
78841;BME280;68379;47.190;27.558;2023-05-20T05:27:39;100424.73;;;17.55;72.76
78841;BME280;68379;47.190;27.558;2023-05-20T05:30:10;100421.39;;;17.54;72.90
78841;BME280;68379;47.190;27.558;2023-05-20T05:32:39;100418.98;;;17.47;72.28
78841;BME280;68379;47.190;27.558;2023-05-20T05:35:09;100420.29;;;17.36;72.73
78841;BME280;68379;47.190;27.558;2023-05-20T05:37:38;100422.89;;;17.35;72.88
78841;BME280;68379;47.190;27.558;2023-05-20T05:40:09;100419.45;;;17.38;72.91
78841;BME280;68379;47.190;27.558;2023-05-20T05:42:38;100421.59;;;17.38;72.70
78841;BME280;68379;47.190;27.558;2023-05-20T05:45:09;100423.57;;;17.45;72.87
78841;BME280;68379;47.190;27.558;2023-05-20T05:47:38;100424.85;;;17.56;72.42
78841;BME280;68379;47.190;27.558;2023-05-20T05:50:09;100426.73;;;17.64;72.37
78841;BME280;68379;47.190;27.558;2023-05-20T05:52:38;100428.21;;;17.72;72.04
78841;BME280;68379;47.190;27.558;2023-05-20T05:55:09;100427.25;;;17.85;72.22
78841;BME280;68379;47.190;27.558;2023-05-20T05:57:38;100426.86;;;17.95;71.73
78841;BME280;68379;47.190;27.558;2023-05-20T06:00:09;100429.70;;;17.89;71.62
78841;BME280;68379;47.190;27.558;2023-05-20T06:02:39;100428.35;;;17.94;71.89
78841;BME280;68379;47.190;27.558;2023-05-20T06:05:10;100424.30;;;17.93;71.59
78841;BME280;68379;47.190;27.558;2023-05-20T06:07:39;100429.46;;;17.90;71.75
78841;BME280;68379;47.190;27.558;2023-05-20T06:10:09;100429.14;;;17.95;71.61
78841;BME280;68379;47.190;27.558;2023-05-20T06:12:38;100432.00;;;18.04;71.49
78841;BME280;68379;47.190;27.558;2023-05-20T06:15:09;100432.42;;;18.18;71.41
78841;BME280;68379;47.190;27.558;2023-05-20T06:17:39;100430.23;;;18.33;71.09
78841;BME280;68379;47.190;27.558;2023-05-20T06:20:09;100432.76;;;18.44;70.47
78841;BME280;68379;47.190;27.558;2023-05-20T06:22:38;100430.20;;;18.53;70.66
78841;BME280;68379;47.190;27.558;2023-05-20T06:25:09;100423.48;;;18.64;69.87
78841;BME280;68379;47.190;27.558;2023-05-20T06:27:39;100419.32;;;18.73;69.94
78841;BME280;68379;47.190;27.558;2023-05-20T06:30:10;100419.12;;;18.79;69.48
78841;BME280;68379;47.190;27.558;2023-05-20T06:32:39;100416.13;;;18.79;69.51
78841;BME280;68379;47.190;27.558;2023-05-20T06:35:10;100421.38;;;18.80;69.23
78841;BME280;68379;47.190;27.558;2023-05-20T06:37:39;100422.16;;;18.79;69.26
78841;BME280;68379;47.190;27.558;2023-05-20T06:40:10;100421.54;;;18.78;69.02
78841;BME280;68379;47.190;27.558;2023-05-20T06:42:39;100420.65;;;18.77;69.09
78841;BME280;68379;47.190;27.558;2023-05-20T06:45:10;100419.69;;;18.81;69.19
78841;BME280;68379;47.190;27.558;2023-05-20T06:47:40;100419.07;;;18.85;68.86
78841;BME280;68379;47.190;27.558;2023-05-20T06:50:10;100420.19;;;18.87;68.45
78841;BME280;68379;47.190;27.558;2023-05-20T06:52:39;100422.81;;;18.94;68.83
78841;BME280;68379;47.190;27.558;2023-05-20T06:55:12;100421.70;;;19.02;68.75
78841;BME280;68379;47.190;27.558;2023-05-20T06:57:40;100416.88;;;19.11;68.44
78841;BME280;68379;47.190;27.558;2023-05-20T07:00:12;100419.06;;;19.16;68.15
78841;BME280;68379;47.190;27.558;2023-05-20T07:02:41;100422.23;;;19.11;68.36
78841;BME280;68379;47.190;27.558;2023-05-20T07:05:11;100427.41;;;19.08;68.53
78841;BME280;68379;47.190;27.558;2023-05-20T07:07:40;100429.09;;;19.07;68.58
78841;BME280;68379;47.190;27.558;2023-05-20T07:10:10;100432.31;;;19.02;68.43
78841;BME280;68379;47.190;27.558;2023-05-20T07:12:39;100432.52;;;18.93;68.77
78841;BME280;68379;47.190;27.558;2023-05-20T07:15:10;100432.02;;;18.90;69.15
78841;BME280;68379;47.190;27.558;2023-05-20T07:17:39;100430.36;;;18.94;69.07
78841;BME280;68379;47.190;27.558;2023-05-20T07:20:09;100433.13;;;18.93;68.92
78841;BME280;68379;47.190;27.558;2023-05-20T07:22:38;100425.91;;;18.88;68.92
78841;BME280;68379;47.190;27.558;2023-05-20T07:25:08;100426.77;;;18.83;68.94
78841;BME280;68379;47.190;27.558;2023-05-20T07:27:37;100422.39;;;18.81;68.81
78841;BME280;68379;47.190;27.558;2023-05-20T07:30:08;100422.28;;;18.83;69.03
78841;BME280;68379;47.190;27.558;2023-05-20T07:32:38;100426.08;;;18.85;68.70
78841;BME280;68379;47.190;27.558;2023-05-20T07:35:08;100433.54;;;18.86;68.53
78841;BME280;68379;47.190;27.558;2023-05-20T07:37:37;100436.05;;;18.88;68.47
78841;BME280;68379;47.190;27.558;2023-05-20T07:40:08;100438.27;;;18.99;68.40
78841;BME280;68379;47.190;27.558;2023-05-20T07:42:38;100440.49;;;19.14;68.00
78841;BME280;68379;47.190;27.558;2023-05-20T07:45:09;100438.55;;;19.38;67.59
78841;BME280;68379;47.190;27.558;2023-05-20T07:47:38;100428.64;;;19.63;67.05
78841;BME280;68379;47.190;27.558;2023-05-20T07:50:10;100431.61;;;20.04;66.82
78841;BME280;68379;47.190;27.558;2023-05-20T07:52:39;100425.48;;;20.40;66.30
78841;BME280;68379;47.190;27.558;2023-05-20T07:55:08;100426.02;;;20.63;64.38
78841;BME280;68379;47.190;27.558;2023-05-20T07:57:37;100425.04;;;20.84;64.62
78841;BME280;68379;47.190;27.558;2023-05-20T08:00:09;100431.77;;;21.05;63.33
78841;BME280;68379;47.190;27.558;2023-05-20T08:02:39;100432.40;;;21.35;62.88
78841;BME280;68379;47.190;27.558;2023-05-20T08:05:10;100432.46;;;21.64;62.73
78841;BME280;68379;47.190;27.558;2023-05-20T08:07:39;100434.73;;;21.72;61.78
78841;BME280;68379;47.190;27.558;2023-05-20T08:10:10;100432.36;;;21.53;61.66
78841;BME280;68379;47.190;27.558;2023-05-20T08:12:39;100429.71;;;21.28;61.40
78841;BME280;68379;47.190;27.558;2023-05-20T08:15:10;100433.56;;;21.12;62.52
78841;BME280;68379;47.190;27.558;2023-05-20T08:17:39;100435.14;;;21.18;62.40
78841;BME280;68379;47.190;27.558;2023-05-20T08:20:10;100437.60;;;21.28;61.81
78841;BME280;68379;47.190;27.558;2023-05-20T08:22:40;100441.65;;;21.53;60.64
78841;BME280;68379;47.190;27.558;2023-05-20T08:25:10;100437.42;;;21.85;61.12
78841;BME280;68379;47.190;27.558;2023-05-20T08:27:39;100435.09;;;22.18;58.98
78841;BME280;68379;47.190;27.558;2023-05-20T08:30:10;100429.52;;;22.30;58.26
78841;BME280;68379;47.190;27.558;2023-05-20T08:32:40;100429.13;;;22.34;58.56
78841;BME280;68379;47.190;27.558;2023-05-20T08:35:10;100433.77;;;22.35;57.98
78841;BME280;68379;47.190;27.558;2023-05-20T08:37:39;100430.88;;;22.37;58.52
78841;BME280;68379;47.190;27.558;2023-05-20T08:40:10;100433.35;;;22.56;58.30
78841;BME280;68379;47.190;27.558;2023-05-20T08:42:42;100433.52;;;22.83;57.38
78841;BME280;68379;47.190;27.558;2023-05-20T08:45:12;100433.19;;;23.07;57.94
78841;BME280;68379;47.190;27.558;2023-05-20T08:47:42;100432.88;;;23.24;55.86
78841;BME280;68379;47.190;27.558;2023-05-20T08:50:12;100435.71;;;23.22;55.86
78841;BME280;68379;47.190;27.558;2023-05-20T08:52:43;100429.97;;;23.11;55.64
78841;BME280;68379;47.190;27.558;2023-05-20T08:55:15;100430.88;;;23.15;55.92
78841;BME280;68379;47.190;27.558;2023-05-20T08:57:45;100432.57;;;23.10;55.59
78841;BME280;68379;47.190;27.558;2023-05-20T09:00:16;100435.33;;;22.83;55.77
78841;BME280;68379;47.190;27.558;2023-05-20T09:02:46;100435.23;;;22.68;56.52
78841;BME280;68379;47.190;27.558;2023-05-20T09:05:15;100429.23;;;22.65;56.72
78841;BME280;68379;47.190;27.558;2023-05-20T09:07:45;100426.06;;;22.77;56.73
78841;BME280;68379;47.190;27.558;2023-05-20T09:10:14;100423.25;;;22.90;56.55
78841;BME280;68379;47.190;27.558;2023-05-20T09:12:43;100422.70;;;23.08;56.37
78841;BME280;68379;47.190;27.558;2023-05-20T09:15:12;100422.34;;;23.23;55.13
78841;BME280;68379;47.190;27.558;2023-05-20T09:17:41;100421.87;;;23.31;55.83
78841;BME280;68379;47.190;27.558;2023-05-20T09:20:13;100422.84;;;23.41;55.43
78841;BME280;68379;47.190;27.558;2023-05-20T09:22:42;100425.59;;;23.49;55.11
78841;BME280;68379;47.190;27.558;2023-05-20T09:25:11;100422.23;;;23.50;55.03
78841;BME280;68379;47.190;27.558;2023-05-20T09:27:41;100421.40;;;23.62;54.88
78841;BME280;68379;47.190;27.558;2023-05-20T09:30:11;100415.63;;;23.73;55.20
78841;BME280;68379;47.190;27.558;2023-05-20T09:32:41;100409.25;;;23.80;55.08
78841;BME280;68379;47.190;27.558;2023-05-20T09:35:12;100406.91;;;23.86;55.45
78841;BME280;68379;47.190;27.558;2023-05-20T09:37:42;100401.00;;;24.04;55.33
78841;BME280;68379;47.190;27.558;2023-05-20T09:40:16;100401.21;;;24.25;54.72
78841;BME280;68379;47.190;27.558;2023-05-20T09:42:52;100400.88;;;24.45;54.37
78841;BME280;68379;47.190;27.558;2023-05-20T09:45:21;100401.52;;;24.50;52.62
78841;BME280;68379;47.190;27.558;2023-05-20T09:47:52;100400.20;;;24.55;53.65
78841;BME280;68379;47.190;27.558;2023-05-20T09:50:23;100399.39;;;24.66;52.97
78841;BME280;68379;47.190;27.558;2023-05-20T09:52:53;100399.27;;;24.58;51.96
78841;BME280;68379;47.190;27.558;2023-05-20T09:55:23;100395.69;;;24.63;52.56
78841;BME280;68379;47.190;27.558;2023-05-20T09:57:53;100392.77;;;24.82;52.52
78841;BME280;68379;47.190;27.558;2023-05-20T10:00:22;100385.57;;;25.01;52.01
78841;BME280;68379;47.190;27.558;2023-05-20T10:02:52;100376.02;;;25.11;51.99
78841;BME280;68379;47.190;27.558;2023-05-20T10:05:23;100377.03;;;25.15;50.64
78841;BME280;68379;47.190;27.558;2023-05-20T10:08:15;100372.59;;;25.27;51.13
78841;BME280;68379;47.190;27.558;2023-05-20T10:10:50;100366.27;;;25.40;51.06
78841;BME280;68379;47.190;27.558;2023-05-20T10:13:36;100362.92;;;25.55;50.39
78841;BME280;68379;47.190;27.558;2023-05-20T10:16:20;100360.70;;;25.69;50.53
78841;BME280;68379;47.190;27.558;2023-05-20T10:19:03;100362.68;;;25.80;49.13
78841;BME280;68379;47.190;27.558;2023-05-20T10:21:35;100356.83;;;25.85;48.87
78841;BME280;68379;47.190;27.558;2023-05-20T10:24:08;100353.29;;;25.95;49.15
78841;BME280;68379;47.190;27.558;2023-05-20T10:26:38;100352.27;;;26.06;49.12
78841;BME280;68379;47.190;27.558;2023-05-20T10:29:17;100347.11;;;26.22;48.33
78841;BME280;68379;47.190;27.558;2023-05-20T10:31:48;100345.77;;;26.34;48.53
78841;BME280;68379;47.190;27.558;2023-05-20T10:34:19;100343.18;;;26.27;47.60
78841;BME280;68379;47.190;27.558;2023-05-20T10:36:58;100340.09;;;26.22;48.23
78841;BME280;68379;47.190;27.558;2023-05-20T10:39:29;100340.22;;;26.39;48.28
78841;BME280;68379;47.190;27.558;2023-05-20T10:42:09;100336.11;;;26.55;46.33
78841;BME280;68379;47.190;27.558;2023-05-20T10:44:42;100327.53;;;26.68;46.14
78841;BME280;68379;47.190;27.558;2023-05-20T10:47:12;100331.71;;;26.83;46.07
78841;BME280;68379;47.190;27.558;2023-05-20T10:49:45;100327.17;;;26.97;45.82
78841;BME280;68379;47.190;27.558;2023-05-20T10:52:15;100324.16;;;27.16;44.34
78841;BME280;68379;47.190;27.558;2023-05-20T10:54:45;100320.73;;;27.32;43.95
78841;BME280;68379;47.190;27.558;2023-05-20T10:57:14;100318.47;;;27.39;41.42
78841;BME280;68379;47.190;27.558;2023-05-20T10:59:43;100314.89;;;27.52;41.79
78841;BME280;68379;47.190;27.558;2023-05-20T11:02:15;100310.98;;;27.87;41.94
78841;BME280;68379;47.190;27.558;2023-05-20T11:04:44;100309.47;;;28.25;41.85
78841;BME280;68379;47.190;27.558;2023-05-20T11:07:25;100306.86;;;28.50;41.88
78841;BME280;68379;47.190;27.558;2023-05-20T11:09:54;100300.96;;;28.76;40.68
78841;BME280;68379;47.190;27.558;2023-05-20T11:12:25;100295.15;;;28.84;37.98
78841;BME280;68379;47.190;27.558;2023-05-20T11:14:54;100288.06;;;28.89;37.23
78841;BME280;68379;47.190;27.558;2023-05-20T11:17:23;100279.99;;;29.00;37.54
78841;BME280;68379;47.190;27.558;2023-05-20T11:19:52;100269.05;;;29.12;36.13
78841;BME280;68379;47.190;27.558;2023-05-20T11:22:21;100265.63;;;29.13;36.31
78841;BME280;68379;47.190;27.558;2023-05-20T11:24:50;100267.38;;;29.17;36.14
78841;BME280;68379;47.190;27.558;2023-05-20T11:27:19;100261.91;;;29.19;36.06
78841;BME280;68379;47.190;27.558;2023-05-20T11:29:50;100257.30;;;29.22;35.98
78841;BME280;68379;47.190;27.558;2023-05-20T11:32:20;100262.11;;;29.35;34.40
78841;BME280;68379;47.190;27.558;2023-05-20T11:34:51;100252.76;;;29.37;33.51
78841;BME280;68379;47.190;27.558;2023-05-20T11:37:21;100250.06;;;29.41;32.42
78841;BME280;68379;47.190;27.558;2023-05-20T11:40:05;100246.09;;;29.00;31.90
78841;BME280;68379;47.190;27.558;2023-05-20T11:42:36;100240.80;;;29.14;30.95
78841;BME280;68379;47.190;27.558;2023-05-20T11:45:07;100235.90;;;29.07;31.95
78841;BME280;68379;47.190;27.558;2023-05-20T11:47:41;100232.27;;;29.02;32.15
78841;BME280;68379;47.190;27.558;2023-05-20T11:50:17;100233.45;;;29.04;32.85
78841;BME280;68379;47.190;27.558;2023-05-20T11:52:47;100228.47;;;28.97;32.36
78841;BME280;68379;47.190;27.558;2023-05-20T11:55:27;100216.75;;;28.74;31.38
78841;BME280;68379;47.190;27.558;2023-05-20T11:57:57;100214.55;;;28.48;31.80
78841;BME280;68379;47.190;27.558;2023-05-20T12:00:26;100209.02;;;28.23;31.46
78841;BME280;68379;47.190;27.558;2023-05-20T12:02:55;100213.20;;;27.93;31.74
78841;BME280;68379;47.190;27.558;2023-05-20T12:05:26;100215.41;;;27.75;32.87
78841;BME280;68379;47.190;27.558;2023-05-20T12:07:56;100211.14;;;27.54;32.11
78841;BME280;68379;47.190;27.558;2023-05-20T12:10:25;100208.65;;;27.36;33.11
78841;BME280;68379;47.190;27.558;2023-05-20T12:12:54;100209.60;;;27.35;33.55
78841;BME280;68379;47.190;27.558;2023-05-20T12:15:22;100211.27;;;27.26;33.39
78841;BME280;68379;47.190;27.558;2023-05-20T12:17:52;100212.84;;;27.21;33.73
78841;BME280;68379;47.190;27.558;2023-05-20T12:20:23;100212.37;;;27.21;32.84
78841;BME280;68379;47.190;27.558;2023-05-20T12:22:52;100204.67;;;27.28;33.89
78841;BME280;68379;47.190;27.558;2023-05-20T12:25:21;100202.52;;;27.46;34.11
78841;BME280;68379;47.190;27.558;2023-05-20T12:27:51;100200.31;;;27.67;34.20
78841;BME280;68379;47.190;27.558;2023-05-20T12:30:21;100200.46;;;27.84;32.77
78841;BME280;68379;47.190;27.558;2023-05-20T12:32:51;100192.71;;;27.93;32.82
78841;BME280;68379;47.190;27.558;2023-05-20T12:35:34;100185.25;;;27.94;32.77
78841;BME280;68379;47.190;27.558;2023-05-20T12:38:04;100178.80;;;28.20;33.27
78841;BME280;68379;47.190;27.558;2023-05-20T12:40:33;100171.30;;;28.87;33.06
78841;BME280;68379;47.190;27.558;2023-05-20T12:43:03;100170.58;;;29.27;31.59
78841;BME280;68379;47.190;27.558;2023-05-20T12:45:32;100164.09;;;29.24;30.58
78841;BME280;68379;47.190;27.558;2023-05-20T12:48:01;100164.08;;;29.15;31.10
78841;BME280;68379;47.190;27.558;2023-05-20T12:50:30;100167.57;;;29.03;31.77
78841;BME280;68379;47.190;27.558;2023-05-20T12:52:59;100164.95;;;28.68;32.01
78841;BME280;68379;47.190;27.558;2023-05-20T12:55:29;100167.06;;;28.15;33.35